Terminal Aerodrome Forecast
Issued by NWS Sterling, VA

Current Version | Previous Version | Graphics & Text | Print | Product List | Glossary On
Versions: 1 2 3 4 5 6 7 8 9 10 11 12 13 14 15 16 17 18 19 20 21 22
229
FTUS41 KLWX 202337
TAFDCA
TAF
KDCA 202337Z 2100/2124 13004KT P6SM OVC090
     FM210600 VRB03KT P6SM VCSH OVC060
     FM211000 03004KT P6SM OVC040
     FM211700 33007KT P6SM BKN040=

USA.gov is the U.S. government's official web portal to all federal, state and local government web resources and services.